Time;durP1;ratioP1;P1;durP2;ratioP2;P2;SDS_P1;SDS_P2;PMS_P1;PMS_P2;Temp;Humidity;BMP_temperature;BMP_pressure;BME280_temperature;BME280_humidity;BME280_pressure;Samples;Min_cycle;Max_cycle;Signal;HPM_P1;HPM_P2
2021/12/30 00:04:35;;;;;;;4.22;1.50;;;9.60;99.90;;;;;;10480529;28;20056;-84
2021/12/30 00:09:37;;;;;;;4.63;1.70;;;9.60;99.90;;;;;;10474585;28;20084;-83
2021/12/30 00:14:38;;;;;;;8.43;1.98;;;9.80;99.90;;;;;;10477783;28;20028;-83
2021/12/30 00:19:38;;;;;;;4.70;1.38;;;9.60;99.90;;;;;;10483186;28;20040;-83
2021/12/30 00:24:39;;;;;;;7.35;2.40;;;9.70;99.90;;;;;;10481635;28;20045;-83
2021/12/30 00:29:43;;;;;;;8.25;1.88;;;9.60;99.90;;;;;;10446916;28;20106;-83
2021/12/30 00:34:46;;;;;;;4.30;1.65;;;9.60;99.90;;;;;;10446709;28;20025;-83
2021/12/30 00:39:47;;;;;;;7.53;1.73;;;9.60;99.90;;;;;;10476320;28;20139;-83
2021/12/30 00:44:48;;;;;;;7.70;1.70;;;9.70;99.90;;;;;;10475799;28;20033;-83
2021/12/30 00:49:48;;;;;;;7.03;1.90;;;9.60;99.90;;;;;;10474484;28;20371;-83
2021/12/30 00:54:49;;;;;;;7.95;2.28;;;9.60;99.90;;;;;;10475138;28;20098;-83
2021/12/30 00:59:50;;;;;;;8.48;1.83;;;9.60;99.90;;;;;;10482024;28;20041;-84
2021/12/30 01:04:51;;;;;;;6.95;1.83;;;9.50;99.90;;;;;;10479744;28;20314;-83
2021/12/30 01:09:52;;;;;;;6.47;1.70;;;9.50;99.90;;;;;;10463302;28;20093;-83
2021/12/30 01:14:53;;;;;;;7.50;1.80;;;9.60;99.90;;;;;;10477098;28;20029;-83
2021/12/30 01:19:54;;;;;;;7.70;1.83;;;9.50;99.90;;;;;;10462387;28;20056;-82
2021/12/30 01:24:55;;;;;;;6.90;1.95;;;9.50;99.90;;;;;;10467192;28;20033;-83
2021/12/30 01:29:56;;;;;;;7.80;2.17;;;9.50;99.90;;;;;;10460811;28;20101;-83
2021/12/30 01:35:15;;;;;;;7.60;1.83;;;9.50;99.90;;;;;;10480156;28;20041;-83
2021/12/30 01:40:17;;;;;;;7.47;1.88;;;9.50;99.90;;;;;;10485270;28;20044;-83
2021/12/30 01:45:18;;;;;;;8.35;2.17;;;9.50;99.90;;;;;;10487129;28;20044;-83
2021/12/30 01:50:19;;;;;;;9.90;1.92;;;9.50;99.90;;;;;;10487191;28;20028;-83
2021/12/30 01:55:22;;;;;;;8.40;1.70;;;9.50;99.90;;;;;;10483980;28;20045;-83
2021/12/30 02:00:25;;;;;;;7.78;1.88;;;9.50;99.90;;;;;;10487211;28;20765;-82
2021/12/30 02:05:26;;;;;;;8.32;2.60;;;9.50;99.90;;;;;;10473538;28;20032;-83
2021/12/30 02:10:26;;;;;;;8.32;1.88;;;9.50;99.90;;;;;;10484439;28;20044;-83
2021/12/30 02:15:27;;;;;;;8.15;2.15;;;9.50;99.90;;;;;;10469139;28;20431;-83
2021/12/30 02:20:51;;;;;;;6.57;1.70;;;9.70;99.90;;;;;;10478188;28;20406;-82
2021/12/30 02:25:54;;;;;;;10.73;2.28;;;9.50;99.90;;;;;;10486412;28;20120;-83
2021/12/30 02:30:58;;;;;;;11.27;2.35;;;9.50;99.90;;;;;;10483331;28;20028;-83
2021/12/30 02:35:58;;;;;;;9.93;2.05;;;9.60;99.90;;;;;;10461635;28;20159;-83
2021/12/30 02:41:00;;;;;;;5.43;1.95;;;9.60;99.90;;;;;;10464990;28;20153;-83
2021/12/30 02:46:01;;;;;;;9.15;2.03;;;9.60;99.90;;;;;;10483775;28;20399;-82
2021/12/30 02:51:07;;;;;;;13.15;3.30;;;9.60;99.90;;;;;;10476712;28;20056;-83
2021/12/30 02:56:07;;;;;;;8.63;2.22;;;9.70;99.90;;;;;;10479521;28;20120;-82
2021/12/30 03:01:21;;;;;;;9.88;2.75;;;9.60;99.90;;;;;;10487706;28;20548;-83
2021/12/30 03:06:22;;;;;;;9.38;2.53;;;9.60;99.90;;;;;;10484793;28;20409;-82
2021/12/30 03:11:24;;;;;;;8.38;2.10;;;9.90;99.90;;;;;;10483597;28;20098;-83
2021/12/30 03:16:31;;;;;;;8.52;2.83;;;9.60;99.90;;;;;;10478985;28;20070;-82
2021/12/30 03:21:33;;;;;;;10.68;3.47;;;9.70;99.90;;;;;;10485277;28;20410;-82
2021/12/30 03:26:35;;;;;;;9.65;2.30;;;9.70;99.90;;;;;;10479228;28;20394;-82
2021/12/30 03:31:35;;;;;;;8.57;2.75;;;9.70;99.90;;;;;;10476549;28;20499;-82
2021/12/30 03:36:37;;;;;;;7.80;2.70;;;9.60;99.90;;;;;;10451111;28;20025;-83
2021/12/30 03:41:38;;;;;;;10.40;3.17;;;9.70;99.90;;;;;;10480819;28;20341;-83
2021/12/30 03:46:39;;;;;;;9.50;2.70;;;9.70;99.90;;;;;;10478236;28;20041;-82
2021/12/30 03:51:40;;;;;;;9.23;2.42;;;9.70;99.90;;;;;;10473766;28;20044;-82
2021/12/30 03:56:41;;;;;;;9.23;2.65;;;9.70;99.90;;;;;;10474286;28;20048;-82
2021/12/30 04:01:41;;;;;;;7.13;3.22;;;9.70;99.90;;;;;;10484935;28;20545;-83
2021/12/30 04:06:42;;;;;;;14.77;3.25;;;9.70;99.90;;;;;;10483208;28;20479;-82
2021/12/30 04:11:43;;;;;;;11.43;3.25;;;9.70;99.90;;;;;;10442651;28;20090;-82
2021/12/30 04:16:44;;;;;;;9.00;2.80;;;9.70;99.90;;;;;;10442673;28;20226;-82
2021/12/30 04:21:45;;;;;;;10.40;2.90;;;9.80;99.90;;;;;;10481241;28;20032;-82
2021/12/30 04:26:45;;;;;;;9.13;3.08;;;9.80;99.90;;;;;;10462309;28;20021;-82
2021/12/30 04:31:47;;;;;;;8.85;3.28;;;9.80;99.90;;;;;;10459415;28;20044;-82
2021/12/30 04:36:50;;;;;;;11.25;2.58;;;9.90;99.90;;;;;;10444393;28;20032;-82
2021/12/30 04:41:51;;;;;;;11.15;3.42;;;9.80;99.90;;;;;;10479369;28;20342;-82
2021/12/30 04:46:52;;;;;;;7.20;3.40;;;9.80;99.90;;;;;;10446925;28;20028;-82
2021/12/30 04:51:53;;;;;;;9.40;3.38;;;9.90;99.90;;;;;;10469684;28;20737;-82
2021/12/30 04:56:54;;;;;;;7.53;3.58;;;9.90;99.90;;;;;;10469915;28;20054;-82
2021/12/30 05:01:54;;;;;;;9.52;3.60;;;9.90;99.90;;;;;;10450331;28;20511;-89
2021/12/30 05:06:55;;;;;;;11.75;3.50;;;10.00;99.90;;;;;;10442052;28;20070;-88
2021/12/30 05:11:56;;;;;;;9.90;3.80;;;9.90;99.90;;;;;;10421566;28;20037;-83
2021/12/30 05:17:02;;;;;;;12.10;3.95;;;9.90;99.90;;;;;;10439168;28;20033;-84
2021/12/30 05:22:03;;;;;;;10.05;3.67;;;10.00;99.90;;;;;;10430561;28;20367;-87
2021/12/30 05:27:04;;;;;;;9.88;4.38;;;10.00;99.90;;;;;;10443276;28;20514;-86
2021/12/30 05:32:05;;;;;;;7.68;3.97;;;10.00;99.90;;;;;;10405806;28;20048;-88
2021/12/30 05:37:06;;;;;;;17.95;6.20;;;10.00;99.90;;;;;;10451537;28;20044;-86
2021/12/30 05:42:07;;;;;;;11.85;5.35;;;10.00;99.90;;;;;;10406594;28;20430;-78
2021/12/30 05:47:08;;;;;;;12.60;4.75;;;10.10;99.90;;;;;;10433271;28;20037;-77
2021/12/30 05:52:08;;;;;;;10.93;5.13;;;10.20;99.90;;;;;;10451342;28;20043;-78
2021/12/30 05:57:10;;;;;;;9.05;4.55;;;10.20;99.90;;;;;;10450577;28;20037;-77
2021/12/30 06:02:10;;;;;;;13.75;5.25;;;10.20;99.90;;;;;;10466961;28;20414;-77
2021/12/30 06:07:11;;;;;;;12.55;5.50;;;10.20;99.90;;;;;;10451570;28;20039;-78
2021/12/30 06:12:12;;;;;;;13.90;5.40;;;10.20;99.90;;;;;;10461474;28;20100;-77
2021/12/30 06:17:15;;;;;;;11.98;5.43;;;10.20;99.90;;;;;;10453150;28;20082;-78
2021/12/30 06:22:15;;;;;;;10.18;4.88;;;10.20;99.90;;;;;;10476156;28;20136;-78
2021/12/30 06:27:17;;;;;;;10.55;5.30;;;10.30;99.90;;;;;;10486792;28;20037;-78
2021/12/30 06:32:18;;;;;;;14.93;5.38;;;10.30;99.90;;;;;;10460181;28;20036;-77
2021/12/30 06:37:19;;;;;;;11.13;5.07;;;10.30;99.90;;;;;;10477564;28;20032;-77
2021/12/30 06:42:20;;;;;;;10.43;4.97;;;10.30;99.90;;;;;;10450645;28;20051;-77
2021/12/30 06:47:20;;;;;;;11.00;5.30;;;10.40;99.90;;;;;;10448358;28;20032;-77
2021/12/30 06:52:21;;;;;;;9.23;4.80;;;10.50;99.90;;;;;;10459672;28;20051;-77
2021/12/30 06:57:22;;;;;;;9.90;4.95;;;10.50;99.90;;;;;;10478768;28;20029;-77
2021/12/30 07:02:23;;;;;;;7.68;4.15;;;10.50;99.90;;;;;;10469160;28;20070;-77
2021/12/30 07:07:23;;;;;;;8.98;3.92;;;10.50;99.90;;;;;;10478899;28;20036;-77
2021/12/30 07:12:24;;;;;;;6.18;3.65;;;10.50;99.90;;;;;;10480597;28;20043;-78
2021/12/30 07:17:27;;;;;;;7.82;3.55;;;10.50;99.90;;;;;;10486413;28;20032;-77
2021/12/30 07:22:28;;;;;;;5.15;3.20;;;10.50;99.90;;;;;;10478812;28;20600;-77
2021/12/30 07:27:29;;;;;;;9.27;4.10;;;10.40;99.90;;;;;;10464073;28;20220;-77
2021/12/30 07:32:29;;;;;;;5.03;3.08;;;10.50;99.90;;;;;;10472672;28;20400;-77
2021/12/30 07:37:30;;;;;;;7.18;3.90;;;10.50;99.90;;;;;;10439723;28;20044;-77
2021/12/30 07:42:31;;;;;;;5.95;2.90;;;10.50;99.90;;;;;;10482070;28;20053;-78
2021/12/30 07:47:32;;;;;;;5.35;3.13;;;10.50;99.90;;;;;;10444723;28;20499;-78
2021/12/30 07:52:34;;;;;;;5.20;3.03;;;10.60;99.90;;;;;;10475143;28;20090;-76
2021/12/30 07:57:35;;;;;;;4.70;3.08;;;10.60;99.90;;;;;;10483328;28;20548;-77
2021/12/30 08:02:36;;;;;;;5.15;2.67;;;10.60;99.90;;;;;;10480969;28;20088;-76
2021/12/30 08:07:37;;;;;;;5.72;2.97;;;10.60;99.90;;;;;;10435704;28;20068;-77
2021/12/30 08:12:40;;;;;;;6.60;3.03;;;10.60;99.90;;;;;;10478456;28;20098;-77
2021/12/30 08:17:42;;;;;;;5.22;3.35;;;10.60;99.90;;;;;;10478320;28;20402;-77
2021/12/30 08:22:43;;;;;;;6.22;3.47;;;10.70;99.90;;;;;;10479517;28;20080;-77
2021/12/30 08:27:45;;;;;;;7.93;3.22;;;10.80;99.90;;;;;;10481836;28;20502;-77
2021/12/30 08:32:46;;;;;;;6.82;3.00;;;10.70;99.90;;;;;;10471914;28;20039;-77
2021/12/30 08:37:47;;;;;;;6.60;3.97;;;10.80;99.90;;;;;;10457096;28;20024;-77
2021/12/30 08:42:48;;;;;;;4.95;2.83;;;10.70;99.90;;;;;;10434482;28;20041;-76
2021/12/30 08:47:49;;;;;;;4.13;2.70;;;10.70;99.90;;;;;;10454106;28;20534;-77
2021/12/30 08:52:49;;;;;;;8.50;3.30;;;10.80;99.90;;;;;;10471755;28;20436;-76
2021/12/30 08:57:51;;;;;;;6.43;3.28;;;10.80;99.90;;;;;;10473752;28;20441;-76
2021/12/30 09:02:54;;;;;;;5.47;3.22;;;10.80;99.90;;;;;;10483988;28;20045;-77
2021/12/30 09:07:55;;;;;;;5.28;3.17;;;10.80;99.90;;;;;;10478030;28;20033;-77
2021/12/30 09:12:56;;;;;;;5.22;3.20;;;10.90;99.90;;;;;;10473803;28;20067;-78
2021/12/30 09:17:57;;;;;;;6.75;3.33;;;10.90;99.90;;;;;;10480771;28;20044;-77
2021/12/30 09:22:58;;;;;;;7.07;3.63;;;10.90;99.90;;;;;;10473630;28;20402;-77
2021/12/30 09:27:59;;;;;;;6.10;3.70;;;10.90;99.90;;;;;;10480745;28;20043;-77
2021/12/30 09:33:02;;;;;;;5.25;3.25;;;10.90;99.90;;;;;;10477143;28;20029;-77
2021/12/30 09:38:03;;;;;;;6.45;3.55;;;11.00;99.90;;;;;;10471684;28;20024;-78
2021/12/30 09:43:04;;;;;;;5.22;3.63;;;11.20;99.90;;;;;;10480426;28;20045;-77
2021/12/30 09:48:08;;;;;;;5.93;3.53;;;10.90;99.90;;;;;;10488993;28;20106;-76
2021/12/30 09:53:09;;;;;;;4.97;3.40;;;11.00;99.90;;;;;;10487193;28;20036;-78
2021/12/30 09:58:10;;;;;;;6.47;3.60;;;11.10;99.90;;;;;;10489206;28;20040;-77
2021/12/30 10:03:11;;;;;;;5.30;3.22;;;11.20;99.90;;;;;;10481679;28;20114;-78
2021/12/30 10:08:20;;;;;;;7.88;3.58;;;11.10;99.90;;;;;;10464836;28;20033;-78
2021/12/30 10:13:30;;;;;;;;;;;11.10;99.90;;;;;;10481849;28;20296;-78
2021/12/30 10:18:45;;;;;;;9.30;2.85;;;11.20;99.90;;;;;;10481008;28;19904;-78
2021/12/30 10:23:49;;;;;;;8.40;3.20;;;11.20;99.90;;;;;;10485086;28;20048;-77
2021/12/30 10:29:01;;;;;;;9.55;3.50;;;11.20;99.90;;;;;;10461678;28;20167;-78
2021/12/30 10:34:06;;;;;;;5.60;2.92;;;11.20;99.90;;;;;;10476837;28;20044;-78
2021/12/30 10:39:29;;;;;;;8.32;3.15;;;11.20;99.90;;;;;;10475963;28;20109;-78
2021/12/30 10:44:48;;;;;;;8.25;2.80;;;11.20;99.90;;;;;;10464480;28;20145;-77
2021/12/30 10:50:07;;;;;;;9.90;3.35;;;11.20;99.90;;;;;;10461950;28;20187;-77
2021/12/30 10:55:13;;;;;;;6.00;3.00;;;11.30;99.90;;;;;;10475319;28;20102;-77
2021/12/30 11:00:32;;;;;;;8.23;3.03;;;11.20;99.90;;;;;;10478130;28;20044;-78
2021/12/30 11:05:33;;;;;;;10.88;3.30;;;11.30;99.90;;;;;;10475611;28;20087;-77
2021/12/30 11:10:37;;;;;;;12.32;3.38;;;11.30;99.90;;;;;;10458473;28;20239;-78
2021/12/30 11:15:39;;;;;;;13.02;3.90;;;11.30;99.90;;;;;;10478421;28;20112;-77
2021/12/30 11:20:42;;;;;;;11.40;4.18;;;11.30;99.90;;;;;;10475761;28;20106;-77
2021/12/30 11:25:44;;;;;;;13.18;2.88;;;11.30;99.90;;;;;;10479905;28;20039;-77
2021/12/30 11:30:44;;;;;;;10.07;3.47;;;11.30;99.90;;;;;;10486061;28;20252;-77
2021/12/30 11:35:45;;;;;;;11.48;2.95;;;11.30;99.90;;;;;;10476221;28;20041;-78
2021/12/30 11:40:46;;;;;;;10.00;2.95;;;11.30;99.90;;;;;;10477685;28;20415;-78
2021/12/30 11:46:27;;;;;;;9.50;2.80;;;11.30;99.90;;;;;;10479037;28;20029;-77
2021/12/30 11:52:27;;;;;;;7.80;2.45;;;11.30;99.90;;;;;;10467928;28;20130;-77
2021/12/30 11:58:26;;;;;;;13.23;3.00;;;11.30;99.90;;;;;;10481379;28;20043;-77
2021/12/30 12:04:27;;;;;;;12.60;2.90;;;11.30;99.90;;;;;;10482888;28;20063;-77
2021/12/30 12:10:36;;;;;;;12.70;2.78;;;11.30;99.90;;;;;;10472015;28;20036;-77
2021/12/30 12:16:37;;;;;;;6.88;2.83;;;11.30;99.90;;;;;;10474598;28;20039;-78
2021/12/30 12:22:17;;;;;;;7.40;2.53;;;11.30;99.90;;;;;;10476569;28;20087;-78
2021/12/30 12:28:24;;;;;;;12.48;2.85;;;11.30;99.90;;;;;;10475822;28;20036;-78
2021/12/30 12:34:24;;;;;;;11.32;2.97;;;11.30;99.90;;;;;;10474340;28;20050;-78
2021/12/30 12:40:25;;;;;;;12.23;2.70;;;11.40;99.90;;;;;;10475759;28;20082;-78
2021/12/30 12:46:11;;;;;;;13.02;2.65;;;11.30;99.90;;;;;;10473784;28;20029;-78
2021/12/30 12:52:12;;;;;;;11.07;2.63;;;11.40;99.90;;;;;;10472889;28;20036;-78
2021/12/30 12:58:12;;;;;;;8.20;2.97;;;11.40;99.90;;;;;;10481169;28;20098;-80
2021/12/30 18:14:29;;;;;;;12.43;5.07;;;11.70;99.90;;;;;;10469585;28;20514;-85
2021/12/30 18:19:46;;;;;;;12.77;4.38;;;11.70;99.90;;;;;;10460988;28;20032;-75
2021/12/30 18:24:49;;;;;;;10.13;4.25;;;11.70;99.90;;;;;;10453236;28;20526;-84
2021/12/30 18:29:50;;;;;;;8.20;4.55;;;11.70;99.90;;;;;;10463997;28;20033;-86
2021/12/30 18:34:51;;;;;;;9.45;4.70;;;11.80;99.90;;;;;;10478448;28;20037;-90
2021/12/30 18:39:53;;;;;;;9.45;4.60;;;11.80;99.90;;;;;;10458426;28;20036;-78
2021/12/30 18:44:54;;;;;;;9.38;4.80;;;11.90;99.90;;;;;;10475860;28;20053;-81
2021/12/30 18:49:55;;;;;;;10.00;4.85;;;11.80;99.90;;;;;;10483917;28;20110;-82
2021/12/30 18:54:56;;;;;;;13.00;5.40;;;11.90;99.90;;;;;;10477921;28;20033;-82
2021/12/30 18:59:57;;;;;;;9.02;4.90;;;11.80;99.90;;;;;;10433474;28;20095;-81
2021/12/30 19:04:57;;;;;;;13.10;4.97;;;11.80;99.90;;;;;;10480989;28;20037;-80
2021/12/30 19:09:58;;;;;;;9.63;4.18;;;11.80;99.90;;;;;;10476666;28;20521;-80
2021/12/30 19:14:59;;;;;;;13.68;5.45;;;11.80;99.90;;;;;;10481360;28;20461;-80
2021/12/30 19:19:59;;;;;;;11.73;5.00;;;11.80;99.90;;;;;;10478097;28;20475;-80
2021/12/30 19:25:00;;;;;;;8.23;4.20;;;11.80;99.90;;;;;;10481086;28;20090;-80
2021/12/30 19:30:03;;;;;;;11.05;5.20;;;11.80;99.90;;;;;;10484963;28;20041;-80
2021/12/30 19:35:05;;;;;;;12.68;4.93;;;11.80;99.90;;;;;;10482591;28;20032;-81
2021/12/30 19:40:09;;;;;;;8.77;4.15;;;11.80;99.90;;;;;;10472556;28;20048;-81
2021/12/30 19:45:12;;;;;;;10.15;3.80;;;11.80;99.90;;;;;;10477965;28;20036;-80
2021/12/30 19:50:15;;;;;;;15.25;4.25;;;11.90;99.90;;;;;;10479933;28;20033;-80
2021/12/30 19:55:18;;;;;;;12.55;3.83;;;11.90;99.90;;;;;;10475855;28;20052;-81
2021/12/30 20:00:22;;;;;;;9.57;3.83;;;11.90;99.90;;;;;;10459890;28;20029;-82
2021/12/30 20:05:24;;;;;;;10.05;4.18;;;11.90;99.90;;;;;;10458253;28;20033;-81
2021/12/30 20:10:24;;;;;;;7.93;3.63;;;12.00;99.90;;;;;;10461067;28;20041;-82
2021/12/30 20:15:26;;;;;;;8.85;3.85;;;11.90;99.90;;;;;;10458741;28;20430;-82
2021/12/30 20:20:26;;;;;;;9.40;3.53;;;11.90;99.90;;;;;;10459287;28;20499;-82
2021/12/30 20:25:29;;;;;;;6.18;3.30;;;11.90;99.90;;;;;;10431478;28;20077;-81
2021/12/30 20:30:33;;;;;;;8.82;3.17;;;11.90;99.90;;;;;;10449742;28;20043;-83
2021/12/30 20:35:36;;;;;;;8.43;3.33;;;12.20;99.90;;;;;;10455077;28;20479;-83
2021/12/30 20:40:40;;;;;;;7.25;3.58;;;11.90;99.90;;;;;;10452916;28;20514;-83
2021/12/30 20:45:41;;;;;;;5.90;2.72;;;11.90;99.90;;;;;;10461786;28;20123;-81
2021/12/30 20:50:42;;;;;;;6.28;2.97;;;11.90;99.90;;;;;;10458971;28;20483;-82
2021/12/30 20:55:43;;;;;;;11.50;3.25;;;11.90;99.90;;;;;;10457197;28;20033;-80
2021/12/30 21:00:44;;;;;;;7.70;2.75;;;11.90;99.90;;;;;;10455719;28;20056;-80
2021/12/30 21:05:46;;;;;;;5.97;2.42;;;12.00;99.90;;;;;;10473981;28;20036;-79
2021/12/30 21:10:51;;;;;;;7.15;2.63;;;11.90;99.90;;;;;;10479424;28;20470;-80
2021/12/30 21:15:53;;;;;;;7.65;3.25;;;11.90;99.90;;;;;;10475890;28;20044;-79
2021/12/30 21:20:57;;;;;;;4.82;2.30;;;11.90;99.90;;;;;;10479276;28;20040;-79
2021/12/30 21:26:00;;;;;;;3.92;2.40;;;11.90;99.90;;;;;;10453296;28;20036;-86
2021/12/30 21:31:01;;;;;;;7.82;2.47;;;11.90;99.90;;;;;;10453952;28;20514;-79
2021/12/30 21:36:03;;;;;;;9.98;2.28;;;11.90;99.90;;;;;;10448476;28;20052;-80
2021/12/30 21:41:04;;;;;;;8.05;2.30;;;11.90;99.90;;;;;;10458631;28;20041;-80
2021/12/30 21:46:06;;;;;;;8.80;2.40;;;11.90;99.90;;;;;;10462202;28;20037;-79
2021/12/30 21:51:08;;;;;;;8.07;2.10;;;11.90;99.90;;;;;;10466431;28;20086;-79
2021/12/30 21:56:09;;;;;;;6.70;2.03;;;11.90;99.90;;;;;;10462232;28;20032;-79
2021/12/30 22:01:11;;;;;;;6.35;1.80;;;11.90;99.90;;;;;;10462521;28;20068;-80
2021/12/30 22:06:12;;;;;;;8.20;2.17;;;11.90;99.90;;;;;;10457533;28;20045;-80
2021/12/30 22:11:13;;;;;;;6.07;2.05;;;11.90;99.90;;;;;;10461997;28;20067;-80
2021/12/30 22:16:14;;;;;;;6.68;2.17;;;11.90;99.90;;;;;;10467731;28;20064;-80
2021/12/30 22:21:15;;;;;;;6.45;2.35;;;11.90;99.90;;;;;;10479216;28;20052;-80
2021/12/30 22:26:16;;;;;;;5.28;2.25;;;11.90;99.90;;;;;;10477644;28;20403;-80
2021/12/30 22:31:17;;;;;;;8.50;2.75;;;11.90;99.90;;;;;;10485189;28;20064;-79
2021/12/30 22:36:18;;;;;;;5.00;1.77;;;11.90;99.90;;;;;;10466257;28;20136;-80
2021/12/30 22:41:19;;;;;;;7.15;1.83;;;11.90;99.90;;;;;;10459381;28;20102;-80
2021/12/30 22:46:20;;;;;;;4.93;1.77;;;11.90;99.90;;;;;;10484568;28;20373;-80
2021/12/30 22:51:20;;;;;;;5.95;1.80;;;12.00;99.90;;;;;;10482511;28;20116;-80
2021/12/30 22:56:21;;;;;;;8.15;2.10;;;12.00;99.90;;;;;;10481425;28;20067;-79
2021/12/30 23:01:22;;;;;;;4.60;1.77;;;12.00;99.90;;;;;;10489475;28;20105;-79
2021/12/30 23:06:25;;;;;;;8.45;2.03;;;12.00;99.90;;;;;;10484871;28;20218;-79
2021/12/30 23:11:28;;;;;;;6.15;2.00;;;12.10;99.90;;;;;;10485354;28;20033;-79
2021/12/30 23:16:30;;;;;;;5.10;1.60;;;12.00;99.90;;;;;;10477574;28;20129;-79
2021/12/30 23:21:32;;;;;;;6.30;1.50;;;12.00;99.90;;;;;;10484440;28;20040;-79
2021/12/30 23:26:32;;;;;;;5.82;1.73;;;12.00;99.90;;;;;;10487675;28;20511;-79
2021/12/30 23:31:35;;;;;;;7.47;2.08;;;12.00;99.90;;;;;;10488251;28;20033;-79
2021/12/30 23:36:36;;;;;;;3.42;1.17;;;12.00;99.90;;;;;;10487597;28;20141;-79
2021/12/30 23:41:37;;;;;;;5.07;1.50;;;12.00;99.90;;;;;;10484173;28;20522;-79
2021/12/30 23:46:38;;;;;;;5.93;1.30;;;12.00;99.90;;;;;;10478236;28;20052;-79
2021/12/30 23:51:39;;;;;;;7.18;1.52;;;12.00;99.90;;;;;;10481116;28;20051;-79
2021/12/30 23:56:40;;;;;;;3.40;1.23;;;12.00;99.90;;;;;;10455146;28;20361;-79
